sensor_id;sensor_type;location;lat;lon;timestamp;P1;durP1;ratioP1;P2;durP2;ratioP2
45402;SDS011;47427;51.976;5.326;2024-03-23T14:21:19;12.43;;;8.68;;
45402;SDS011;47427;51.976;5.326;2024-03-23T14:24:21;17.25;;;9.07;;
45402;SDS011;47427;51.976;5.326;2024-03-23T14:27:24;15.38;;;8.85;;
45402;SDS011;47427;51.976;5.326;2024-03-23T14:30:27;14.00;;;9.13;;
45402;SDS011;47427;51.976;5.326;2024-03-23T14:33:29;18.02;;;7.30;;
45402;SDS011;47427;51.976;5.326;2024-03-23T14:36:32;13.60;;;9.43;;
45402;SDS011;47427;51.976;5.326;2024-03-23T14:39:34;16.02;;;9.75;;
45402;SDS011;47427;51.976;5.326;2024-03-23T14:42:37;10.80;;;9.30;;
45402;SDS011;47427;51.976;5.326;2024-03-23T14:45:45;12.63;;;9.18;;
45402;SDS011;47427;51.976;5.326;2024-03-23T14:49:14;11.55;;;9.18;;
45402;SDS011;47427;51.976;5.326;2024-03-23T14:52:20;15.95;;;9.07;;
45402;SDS011;47427;51.976;5.326;2024-03-23T14:55:22;11.82;;;9.00;;
45402;SDS011;47427;51.976;5.326;2024-03-23T14:58:25;10.48;;;8.80;;
45402;SDS011;47427;51.976;5.326;2024-03-23T15:01:28;11.75;;;8.18;;
45402;SDS011;47427;51.976;5.326;2024-03-23T15:04:30;9.57;;;8.43;;
45402;SDS011;47427;51.976;5.326;2024-03-23T15:07:32;8.07;;;7.38;;
45402;SDS011;47427;51.976;5.326;2024-03-23T15:10:35;7.68;;;7.28;;
45402;SDS011;47427;51.976;5.326;2024-03-23T15:13:38;8.10;;;7.53;;
45402;SDS011;47427;51.976;5.326;2024-03-23T15:16:41;8.23;;;7.40;;
45402;SDS011;47427;51.976;5.326;2024-03-23T15:19:45;8.45;;;7.68;;
45402;SDS011;47427;51.976;5.326;2024-03-23T15:22:48;8.82;;;8.00;;
45402;SDS011;47427;51.976;5.326;2024-03-23T15:25:57;14.10;;;9.90;;
45402;SDS011;47427;51.976;5.326;2024-03-23T15:29:02;10.75;;;9.05;;
45402;SDS011;47427;51.976;5.326;2024-03-23T15:32:23;15.30;;;11.18;;
45402;SDS011;47427;51.976;5.326;2024-03-23T15:35:26;9.93;;;8.55;;
45402;SDS011;47427;51.976;5.326;2024-03-23T15:38:29;11.20;;;8.70;;
45402;SDS011;47427;51.976;5.326;2024-03-23T15:41:33;9.00;;;8.20;;
45402;SDS011;47427;51.976;5.326;2024-03-23T15:44:36;9.30;;;8.40;;
45402;SDS011;47427;51.976;5.326;2024-03-23T15:47:39;9.57;;;8.68;;
45402;SDS011;47427;51.976;5.326;2024-03-23T15:50:49;15.68;;;9.50;;
45402;SDS011;47427;51.976;5.326;2024-03-23T15:53:56;11.23;;;8.48;;
45402;SDS011;47427;51.976;5.326;2024-03-23T15:56:58;10.73;;;8.68;;
45402;SDS011;47427;51.976;5.326;2024-03-23T16:00:01;8.95;;;7.50;;
45402;SDS011;47427;51.976;5.326;2024-03-23T16:03:12;13.65;;;8.95;;
45402;SDS011;47427;51.976;5.326;2024-03-23T16:06:15;15.93;;;8.77;;
45402;SDS011;47427;51.976;5.326;2024-03-23T16:09:19;9.32;;;8.18;;
45402;SDS011;47427;51.976;5.326;2024-03-23T16:12:21;9.07;;;7.30;;
45402;SDS011;47427;51.976;5.326;2024-03-23T16:15:24;9.32;;;7.80;;
45402;SDS011;47427;51.976;5.326;2024-03-23T16:18:27;8.48;;;7.85;;
45402;SDS011;47427;51.976;5.326;2024-03-23T16:21:30;8.30;;;7.60;;
45402;SDS011;47427;51.976;5.326;2024-03-23T16:24:32;8.02;;;7.30;;
45402;SDS011;47427;51.976;5.326;2024-03-23T16:27:35;7.40;;;6.85;;
45402;SDS011;47427;51.976;5.326;2024-03-23T16:30:38;7.35;;;6.72;;
45402;SDS011;47427;51.976;5.326;2024-03-23T16:33:41;7.97;;;7.40;;
45402;SDS011;47427;51.976;5.326;2024-03-23T16:36:42;10.25;;;9.35;;
45402;SDS011;47427;51.976;5.326;2024-03-23T16:39:44;11.88;;;10.82;;
45402;SDS011;47427;51.976;5.326;2024-03-23T16:42:47;11.60;;;10.80;;
45402;SDS011;47427;51.976;5.326;2024-03-23T16:45:56;10.13;;;9.23;;
45402;SDS011;47427;51.976;5.326;2024-03-23T16:49:00;12.63;;;11.00;;
45402;SDS011;47427;51.976;5.326;2024-03-23T16:52:03;12.43;;;9.90;;
45402;SDS011;47427;51.976;5.326;2024-03-23T16:55:06;9.55;;;8.65;;
45402;SDS011;47427;51.976;5.326;2024-03-23T16:58:09;8.40;;;7.43;;
45402;SDS011;47427;51.976;5.326;2024-03-23T17:01:11;14.45;;;8.13;;
45402;SDS011;47427;51.976;5.326;2024-03-23T17:04:23;7.80;;;7.10;;
45402;SDS011;47427;51.976;5.326;2024-03-23T17:07:26;11.82;;;8.65;;
45402;SDS011;47427;51.976;5.326;2024-03-23T17:10:29;8.95;;;8.15;;
45402;SDS011;47427;51.976;5.326;2024-03-23T17:13:31;7.68;;;6.95;;
45402;SDS011;47427;51.976;5.326;2024-03-23T17:16:37;7.38;;;6.68;;
45402;SDS011;47427;51.976;5.326;2024-03-23T17:19:41;11.25;;;7.63;;
45402;SDS011;47427;51.976;5.326;2024-03-23T17:22:44;10.75;;;7.97;;
45402;SDS011;47427;51.976;5.326;2024-03-23T17:25:45;9.85;;;7.22;;
45402;SDS011;47427;51.976;5.326;2024-03-23T17:28:48;9.07;;;6.60;;
45402;SDS011;47427;51.976;5.326;2024-03-23T17:31:52;12.63;;;7.70;;
45402;SDS011;47427;51.976;5.326;2024-03-23T17:34:54;11.50;;;8.00;;
45402;SDS011;47427;51.976;5.326;2024-03-23T17:37:56;18.33;;;8.35;;
45402;SDS011;47427;51.976;5.326;2024-03-23T17:40:59;10.38;;;7.68;;
45402;SDS011;47427;51.976;5.326;2024-03-23T17:44:01;9.77;;;8.40;;
45402;SDS011;47427;51.976;5.326;2024-03-23T17:47:04;11.25;;;8.77;;
45402;SDS011;47427;51.976;5.326;2024-03-23T17:50:06;15.60;;;8.38;;
45402;SDS011;47427;51.976;5.326;2024-03-23T17:53:10;9.70;;;7.63;;
45402;SDS011;47427;51.976;5.326;2024-03-23T17:56:12;8.90;;;8.13;;
45402;SDS011;47427;51.976;5.326;2024-03-23T17:59:15;9.68;;;8.77;;
45402;SDS011;47427;51.976;5.326;2024-03-23T18:02:17;9.68;;;8.85;;
45402;SDS011;47427;51.976;5.326;2024-03-23T18:05:20;15.57;;;10.85;;
45402;SDS011;47427;51.976;5.326;2024-03-23T18:08:23;9.93;;;9.18;;
45402;SDS011;47427;51.976;5.326;2024-03-23T18:11:26;10.20;;;9.40;;
45402;SDS011;47427;51.976;5.326;2024-03-23T18:14:28;10.93;;;10.23;;
45402;SDS011;47427;51.976;5.326;2024-03-23T18:17:31;12.25;;;10.52;;
45402;SDS011;47427;51.976;5.326;2024-03-23T18:20:34;11.93;;;11.13;;
45402;SDS011;47427;51.976;5.326;2024-03-23T18:23:36;17.98;;;10.27;;
45402;SDS011;47427;51.976;5.326;2024-03-23T18:26:38;13.23;;;9.32;;
45402;SDS011;47427;51.976;5.326;2024-03-23T18:29:41;12.20;;;9.48;;
45402;SDS011;47427;51.976;5.326;2024-03-23T18:32:43;21.85;;;10.70;;
45402;SDS011;47427;51.976;5.326;2024-03-23T18:35:50;9.35;;;8.30;;
45402;SDS011;47427;51.976;5.326;2024-03-23T18:38:54;14.43;;;9.23;;
45402;SDS011;47427;51.976;5.326;2024-03-23T18:41:58;10.02;;;8.95;;
45402;SDS011;47427;51.976;5.326;2024-03-23T18:45:01;11.50;;;9.07;;
45402;SDS011;47427;51.976;5.326;2024-03-23T18:48:03;15.85;;;8.40;;
45402;SDS011;47427;51.976;5.326;2024-03-23T18:51:07;13.70;;;10.25;;
45402;SDS011;47427;51.976;5.326;2024-03-23T18:54:08;9.35;;;8.30;;
45402;SDS011;47427;51.976;5.326;2024-03-23T18:57:11;10.57;;;9.35;;
45402;SDS011;47427;51.976;5.326;2024-03-23T19:00:14;11.52;;;8.65;;
45402;SDS011;47427;51.976;5.326;2024-03-23T19:03:17;13.77;;;11.07;;
45402;SDS011;47427;51.976;5.326;2024-03-23T19:06:18;10.18;;;9.23;;
45402;SDS011;47427;51.976;5.326;2024-03-23T19:09:21;12.70;;;10.65;;
45402;SDS011;47427;51.976;5.326;2024-03-23T19:12:27;11.73;;;10.63;;
45402;SDS011;47427;51.976;5.326;2024-03-23T19:15:30;15.63;;;9.35;;
45402;SDS011;47427;51.976;5.326;2024-03-23T19:18:31;17.00;;;10.20;;
45402;SDS011;47427;51.976;5.326;2024-03-23T19:21:35;13.48;;;11.30;;
45402;SDS011;47427;51.976;5.326;2024-03-23T19:24:37;14.00;;;11.60;;
45402;SDS011;47427;51.976;5.326;2024-03-23T19:27:40;13.35;;;10.77;;
45402;SDS011;47427;51.976;5.326;2024-03-23T19:30:43;11.20;;;9.52;;
45402;SDS011;47427;51.976;5.326;2024-03-23T19:33:46;8.98;;;7.90;;
45402;SDS011;47427;51.976;5.326;2024-03-23T19:36:50;9.82;;;8.52;;
45402;SDS011;47427;51.976;5.326;2024-03-23T19:39:54;14.48;;;10.45;;
45402;SDS011;47427;51.976;5.326;2024-03-23T19:42:57;10.82;;;8.02;;
45402;SDS011;47427;51.976;5.326;2024-03-23T19:46:03;11.10;;;7.68;;
45402;SDS011;47427;51.976;5.326;2024-03-23T19:49:06;7.93;;;7.20;;
45402;SDS011;47427;51.976;5.326;2024-03-23T19:52:09;8.80;;;6.75;;
45402;SDS011;47427;51.976;5.326;2024-03-23T19:55:10;7.13;;;6.43;;
45402;SDS011;47427;51.976;5.326;2024-03-23T19:58:13;10.70;;;6.78;;
45402;SDS011;47427;51.976;5.326;2024-03-23T20:01:16;10.75;;;6.60;;
45402;SDS011;47427;51.976;5.326;2024-03-23T20:04:20;9.50;;;6.75;;
45402;SDS011;47427;51.976;5.326;2024-03-23T20:07:23;7.10;;;6.40;;
45402;SDS011;47427;51.976;5.326;2024-03-23T20:10:27;8.80;;;6.60;;
45402;SDS011;47427;51.976;5.326;2024-03-23T20:13:29;8.88;;;6.68;;
45402;SDS011;47427;51.976;5.326;2024-03-23T20:16:32;7.60;;;6.25;;
45402;SDS011;47427;51.976;5.326;2024-03-23T20:19:34;11.93;;;6.65;;
45402;SDS011;47427;51.976;5.326;2024-03-23T20:22:37;10.10;;;6.68;;
45402;SDS011;47427;51.976;5.326;2024-03-23T20:25:40;13.85;;;7.35;;
45402;SDS011;47427;51.976;5.326;2024-03-23T20:28:53;11.82;;;7.63;;
45402;SDS011;47427;51.976;5.326;2024-03-23T20:31:55;7.75;;;6.25;;
45402;SDS011;47427;51.976;5.326;2024-03-23T20:34:57;9.30;;;7.53;;
45402;SDS011;47427;51.976;5.326;2024-03-23T20:38:00;7.15;;;6.25;;
45402;SDS011;47427;51.976;5.326;2024-03-23T20:41:03;9.23;;;6.65;;
45402;SDS011;47427;51.976;5.326;2024-03-23T20:44:05;7.38;;;6.38;;
45402;SDS011;47427;51.976;5.326;2024-03-23T20:47:07;7.20;;;6.00;;
45402;SDS011;47427;51.976;5.326;2024-03-23T20:50:10;6.72;;;6.10;;
45402;SDS011;47427;51.976;5.326;2024-03-23T20:53:14;7.30;;;6.15;;
45402;SDS011;47427;51.976;5.326;2024-03-23T20:56:17;7.70;;;5.72;;
45402;SDS011;47427;51.976;5.326;2024-03-23T20:59:19;9.25;;;6.30;;
45402;SDS011;47427;51.976;5.326;2024-03-23T21:02:21;7.65;;;7.15;;
45402;SDS011;47427;51.976;5.326;2024-03-23T21:05:24;9.73;;;7.03;;
45402;SDS011;47427;51.976;5.326;2024-03-23T21:08:27;7.18;;;6.47;;
45402;SDS011;47427;51.976;5.326;2024-03-23T21:11:28;9.18;;;7.20;;
45402;SDS011;47427;51.976;5.326;2024-03-23T21:14:31;9.52;;;6.57;;
45402;SDS011;47427;51.976;5.326;2024-03-23T21:17:34;8.95;;;7.10;;
45402;SDS011;47427;51.976;5.326;2024-03-23T21:20:36;9.07;;;8.05;;
45402;SDS011;47427;51.976;5.326;2024-03-23T21:23:39;9.10;;;8.35;;
45402;SDS011;47427;51.976;5.326;2024-03-23T21:26:42;9.98;;;8.75;;
45402;SDS011;47427;51.976;5.326;2024-03-23T21:29:44;13.02;;;8.52;;
45402;SDS011;47427;51.976;5.326;2024-03-23T21:32:48;10.40;;;8.40;;
45402;SDS011;47427;51.976;5.326;2024-03-23T21:35:57;9.00;;;8.10;;
45402;SDS011;47427;51.976;5.326;2024-03-23T21:39:01;11.93;;;9.73;;
45402;SDS011;47427;51.976;5.326;2024-03-23T21:42:09;12.25;;;9.43;;
45402;SDS011;47427;51.976;5.326;2024-03-23T21:45:11;16.05;;;9.70;;
45402;SDS011;47427;51.976;5.326;2024-03-23T21:48:14;10.13;;;8.77;;
45402;SDS011;47427;51.976;5.326;2024-03-23T21:51:16;11.55;;;9.40;;
45402;SDS011;47427;51.976;5.326;2024-03-23T21:54:20;10.65;;;9.80;;
45402;SDS011;47427;51.976;5.326;2024-03-23T21:57:23;16.45;;;11.13;;
45402;SDS011;47427;51.976;5.326;2024-03-23T22:00:25;17.85;;;10.07;;
45402;SDS011;47427;51.976;5.326;2024-03-23T22:03:27;15.00;;;9.75;;
45402;SDS011;47427;51.976;5.326;2024-03-23T22:06:30;11.85;;;10.30;;
45402;SDS011;47427;51.976;5.326;2024-03-23T22:09:33;12.10;;;10.98;;
45402;SDS011;47427;51.976;5.326;2024-03-23T22:12:36;10.52;;;9.60;;
45402;SDS011;47427;51.976;5.326;2024-03-23T22:15:39;10.95;;;9.95;;
45402;SDS011;47427;51.976;5.326;2024-03-23T22:18:42;15.65;;;10.35;;
45402;SDS011;47427;51.976;5.326;2024-03-23T22:21:44;19.08;;;9.32;;
45402;SDS011;47427;51.976;5.326;2024-03-23T22:24:47;10.10;;;9.00;;
45402;SDS011;47427;51.976;5.326;2024-03-23T22:27:50;11.15;;;8.10;;
45402;SDS011;47427;51.976;5.326;2024-03-23T22:31:03;9.55;;;7.72;;
45402;SDS011;47427;51.976;5.326;2024-03-23T22:34:07;15.27;;;7.78;;
45402;SDS011;47427;51.976;5.326;2024-03-23T22:37:08;10.93;;;8.38;;
45402;SDS011;47427;51.976;5.326;2024-03-23T22:40:11;9.90;;;8.10;;
45402;SDS011;47427;51.976;5.326;2024-03-23T22:43:14;9.30;;;8.50;;
45402;SDS011;47427;51.976;5.326;2024-03-23T22:46:18;14.32;;;8.80;;
45402;SDS011;47427;51.976;5.326;2024-03-23T22:49:20;12.30;;;8.65;;
45402;SDS011;47427;51.976;5.326;2024-03-23T22:52:23;17.27;;;9.15;;
45402;SDS011;47427;51.976;5.326;2024-03-23T22:55:26;9.38;;;8.57;;
45402;SDS011;47427;51.976;5.326;2024-03-23T22:58:29;12.77;;;10.02;;
45402;SDS011;47427;51.976;5.326;2024-03-23T23:01:30;11.10;;;9.98;;
45402;SDS011;47427;51.976;5.326;2024-03-23T23:04:33;13.00;;;9.20;;
45402;SDS011;47427;51.976;5.326;2024-03-23T23:07:37;10.38;;;9.38;;
45402;SDS011;47427;51.976;5.326;2024-03-23T23:10:59;11.65;;;10.50;;
45402;SDS011;47427;51.976;5.326;2024-03-23T23:14:00;10.50;;;9.50;;
45402;SDS011;47427;51.976;5.326;2024-03-23T23:17:03;11.85;;;10.43;;
45402;SDS011;47427;51.976;5.326;2024-03-23T23:20:07;13.35;;;9.77;;
45402;SDS011;47427;51.976;5.326;2024-03-23T23:23:12;16.88;;;10.95;;
45402;SDS011;47427;51.976;5.326;2024-03-23T23:26:14;11.60;;;10.25;;
45402;SDS011;47427;51.976;5.326;2024-03-23T23:29:17;12.00;;;10.68;;
45402;SDS011;47427;51.976;5.326;2024-03-23T23:32:20;16.88;;;11.65;;
45402;SDS011;47427;51.976;5.326;2024-03-23T23:35:23;12.63;;;11.35;;
45402;SDS011;47427;51.976;5.326;2024-03-23T23:38:25;15.07;;;13.50;;
45402;SDS011;47427;51.976;5.326;2024-03-23T23:41:28;13.18;;;11.93;;
45402;SDS011;47427;51.976;5.326;2024-03-23T23:44:30;16.40;;;14.55;;
45402;SDS011;47427;51.976;5.326;2024-03-23T23:47:33;20.42;;;17.27;;
45402;SDS011;47427;51.976;5.326;2024-03-23T23:50:35;25.05;;;22.67;;
45402;SDS011;47427;51.976;5.326;2024-03-23T23:53:37;19.52;;;17.65;;
45402;SDS011;47427;51.976;5.326;2024-03-23T23:56:41;26.27;;;17.38;;
45402;SDS011;47427;51.976;5.326;2024-03-23T23:59:44;19.98;;;15.25;;
